sensor_id;sensor_type;location;lat;lon;timestamp;P1;durP1;ratioP1;P2;durP2;ratioP2
57085;SDS011;42964;42.910;23.792;2023-08-12T00:03:53;10.20;;;7.03;;
57085;SDS011;42964;42.910;23.792;2023-08-12T00:13:51;10.70;;;7.80;;
57085;SDS011;42964;42.910;23.792;2023-08-12T00:23:49;10.45;;;7.40;;
57085;SDS011;42964;42.910;23.792;2023-08-12T00:28:48;12.73;;;8.15;;
57085;SDS011;42964;42.910;23.792;2023-08-12T00:33:48;10.57;;;9.25;;
57085;SDS011;42964;42.910;23.792;2023-08-12T00:43:46;9.95;;;8.70;;
57085;SDS011;42964;42.910;23.792;2023-08-12T00:53:44;19.83;;;9.30;;
57085;SDS011;42964;42.910;23.792;2023-08-12T00:58:44;17.92;;;10.20;;
57085;SDS011;42964;42.910;23.792;2023-08-12T01:03:44;13.65;;;9.73;;
57085;SDS011;42964;42.910;23.792;2023-08-12T01:13:58;10.63;;;9.17;;
57085;SDS011;42964;42.910;23.792;2023-08-12T01:19:06;11.43;;;9.43;;
57085;SDS011;42964;42.910;23.792;2023-08-12T01:24:09;11.40;;;10.23;;
57085;SDS011;42964;42.910;23.792;2023-08-12T01:34:20;11.80;;;10.50;;
57085;SDS011;42964;42.910;23.792;2023-08-12T01:39:35;13.88;;;11.30;;
57085;SDS011;42964;42.910;23.792;2023-08-12T01:44:35;13.68;;;11.20;;
57085;SDS011;42964;42.910;23.792;2023-08-12T01:54:33;15.70;;;11.68;;
57085;SDS011;42964;42.910;23.792;2023-08-12T01:59:33;13.50;;;10.25;;
57085;SDS011;42964;42.910;23.792;2023-08-12T02:04:33;13.18;;;11.52;;
57085;SDS011;42964;42.910;23.792;2023-08-12T02:09:33;14.30;;;11.88;;
57085;SDS011;42964;42.910;23.792;2023-08-12T02:19:31;13.38;;;10.38;;
57085;SDS011;42964;42.910;23.792;2023-08-12T02:24:33;10.82;;;9.55;;
57085;SDS011;42964;42.910;23.792;2023-08-12T02:34:31;12.15;;;9.93;;
57085;SDS011;42964;42.910;23.792;2023-08-12T02:44:29;14.48;;;9.57;;
57085;SDS011;42964;42.910;23.792;2023-08-12T02:49:28;14.00;;;10.43;;
57085;SDS011;42964;42.910;23.792;2023-08-12T02:54:27;13.35;;;9.85;;
57085;SDS011;42964;42.910;23.792;2023-08-12T03:04:25;12.98;;;9.35;;
57085;SDS011;42964;42.910;23.792;2023-08-12T03:09:24;15.73;;;10.63;;
57085;SDS011;42964;42.910;23.792;2023-08-12T03:14:23;15.13;;;11.07;;
57085;SDS011;42964;42.910;23.792;2023-08-12T03:19:22;14.23;;;10.05;;
57085;SDS011;42964;42.910;23.792;2023-08-12T03:24:21;18.75;;;10.45;;
57085;SDS011;42964;42.910;23.792;2023-08-12T03:29:20;14.05;;;11.18;;
57085;SDS011;42964;42.910;23.792;2023-08-12T03:34:19;17.38;;;11.77;;
57085;SDS011;42964;42.910;23.792;2023-08-12T03:44:17;14.75;;;11.15;;
57085;SDS011;42964;42.910;23.792;2023-08-12T03:49:16;14.85;;;11.02;;
57085;SDS011;42964;42.910;23.792;2023-08-12T03:54:15;17.15;;;10.75;;
57085;SDS011;42964;42.910;23.792;2023-08-12T03:59:13;14.77;;;12.45;;
57085;SDS011;42964;42.910;23.792;2023-08-12T04:09:11;15.10;;;10.40;;
57085;SDS011;42964;42.910;23.792;2023-08-12T04:19:09;11.70;;;10.40;;
57085;SDS011;42964;42.910;23.792;2023-08-12T04:29:07;11.40;;;9.88;;
57085;SDS011;42964;42.910;23.792;2023-08-12T04:39:04;9.90;;;8.50;;
57085;SDS011;42964;42.910;23.792;2023-08-12T04:49:03;10.13;;;9.10;;
57085;SDS011;42964;42.910;23.792;2023-08-12T04:54:02;11.30;;;9.23;;
57085;SDS011;42964;42.910;23.792;2023-08-12T04:59:01;10.18;;;7.97;;
57085;SDS011;42964;42.910;23.792;2023-08-12T05:08:59;11.98;;;7.97;;
57085;SDS011;42964;42.910;23.792;2023-08-12T05:13:58;11.80;;;8.50;;
57085;SDS011;42964;42.910;23.792;2023-08-12T05:18:58;11.50;;;8.57;;
57085;SDS011;42964;42.910;23.792;2023-08-12T05:28:55;14.15;;;8.20;;
57085;SDS011;42964;42.910;23.792;2023-08-12T05:38:53;9.57;;;7.10;;
57085;SDS011;42964;42.910;23.792;2023-08-12T05:48:51;15.80;;;9.18;;
57085;SDS011;42964;42.910;23.792;2023-08-12T05:58:48;17.17;;;15.37;;
57085;SDS011;42964;42.910;23.792;2023-08-12T06:08:46;10.45;;;7.63;;
57085;SDS011;42964;42.910;23.792;2023-08-12T06:18:44;10.73;;;7.37;;
57085;SDS011;42964;42.910;23.792;2023-08-12T06:28:41;9.47;;;5.93;;
57085;SDS011;42964;42.910;23.792;2023-08-12T06:33:40;9.20;;;5.80;;
57085;SDS011;42964;42.910;23.792;2023-08-12T06:38:39;9.10;;;5.10;;
57085;SDS011;42964;42.910;23.792;2023-08-12T06:43:38;7.00;;;5.30;;
57085;SDS011;42964;42.910;23.792;2023-08-12T06:48:37;6.22;;;5.15;;
57085;SDS011;42964;42.910;23.792;2023-08-12T06:53:36;6.47;;;4.80;;
57085;SDS011;42964;42.910;23.792;2023-08-12T06:58:36;6.88;;;4.13;;
57085;SDS011;42964;42.910;23.792;2023-08-12T07:03:35;6.32;;;4.20;;
57085;SDS011;42964;42.910;23.792;2023-08-12T07:08:34;6.60;;;4.68;;
57085;SDS011;42964;42.910;23.792;2023-08-12T07:13:33;7.32;;;4.30;;
57085;SDS011;42964;42.910;23.792;2023-08-12T07:18:32;6.82;;;4.45;;
57085;SDS011;42964;42.910;23.792;2023-08-12T07:23:31;6.40;;;4.00;;
57085;SDS011;42964;42.910;23.792;2023-08-12T07:28:30;6.10;;;4.22;;
57085;SDS011;42964;42.910;23.792;2023-08-12T07:33:29;6.28;;;4.28;;
57085;SDS011;42964;42.910;23.792;2023-08-12T07:38:28;5.40;;;3.75;;
57085;SDS011;42964;42.910;23.792;2023-08-12T07:43:27;5.43;;;3.85;;
57085;SDS011;42964;42.910;23.792;2023-08-12T07:48:26;7.50;;;4.43;;
57085;SDS011;42964;42.910;23.792;2023-08-12T07:53:25;7.55;;;4.25;;
57085;SDS011;42964;42.910;23.792;2023-08-12T07:58:24;14.70;;;5.38;;
57085;SDS011;42964;42.910;23.792;2023-08-12T08:03:23;5.70;;;4.00;;
57085;SDS011;42964;42.910;23.792;2023-08-12T08:08:23;5.75;;;4.10;;
57085;SDS011;42964;42.910;23.792;2023-08-12T08:13:22;8.63;;;4.13;;
57085;SDS011;42964;42.910;23.792;2023-08-12T08:18:21;4.85;;;3.45;;
57085;SDS011;42964;42.910;23.792;2023-08-12T08:23:20;4.80;;;3.10;;
57085;SDS011;42964;42.910;23.792;2023-08-12T08:28:19;3.22;;;2.92;;
57085;SDS011;42964;42.910;23.792;2023-08-12T08:33:18;6.03;;;3.10;;
57085;SDS011;42964;42.910;23.792;2023-08-12T08:38:17;3.53;;;2.97;;
57085;SDS011;42964;42.910;23.792;2023-08-12T08:43:17;5.40;;;3.08;;
57085;SDS011;42964;42.910;23.792;2023-08-12T08:48:20;4.93;;;3.40;;
57085;SDS011;42964;42.910;23.792;2023-08-12T08:53:19;5.38;;;3.42;;
57085;SDS011;42964;42.910;23.792;2023-08-12T08:58:18;3.35;;;3.05;;
57085;SDS011;42964;42.910;23.792;2023-08-12T09:03:18;4.90;;;3.33;;
57085;SDS011;42964;42.910;23.792;2023-08-12T09:08:18;3.40;;;3.08;;
57085;SDS011;42964;42.910;23.792;2023-08-12T09:13:18;6.20;;;3.42;;
57085;SDS011;42964;42.910;23.792;2023-08-12T09:18:17;3.63;;;3.10;;
57085;SDS011;42964;42.910;23.792;2023-08-12T09:23:16;4.47;;;3.58;;
57085;SDS011;42964;42.910;23.792;2023-08-12T09:28:16;4.05;;;3.05;;
57085;SDS011;42964;42.910;23.792;2023-08-12T09:33:15;4.97;;;3.20;;
57085;SDS011;42964;42.910;23.792;2023-08-12T09:38:22;4.68;;;2.63;;
57085;SDS011;42964;42.910;23.792;2023-08-12T09:43:24;4.10;;;2.45;;
57085;SDS011;42964;42.910;23.792;2023-08-12T09:48:26;4.78;;;3.13;;
57085;SDS011;42964;42.910;23.792;2023-08-12T09:53:25;4.88;;;3.03;;
57085;SDS011;42964;42.910;23.792;2023-08-12T09:58:25;7.47;;;2.78;;
57085;SDS011;42964;42.910;23.792;2023-08-12T10:03:27;5.55;;;2.97;;
57085;SDS011;42964;42.910;23.792;2023-08-12T10:08:27;3.75;;;2.70;;
57085;SDS011;42964;42.910;23.792;2023-08-12T10:13:27;4.88;;;2.60;;
57085;SDS011;42964;42.910;23.792;2023-08-12T10:18:27;4.97;;;3.25;;
57085;SDS011;42964;42.910;23.792;2023-08-12T10:23:28;3.40;;;2.80;;
57085;SDS011;42964;42.910;23.792;2023-08-12T10:28:29;2.80;;;2.60;;
57085;SDS011;42964;42.910;23.792;2023-08-12T10:33:30;3.20;;;2.90;;
57085;SDS011;42964;42.910;23.792;2023-08-12T10:38:33;3.15;;;2.70;;
57085;SDS011;42964;42.910;23.792;2023-08-12T10:43:47;3.70;;;2.88;;
57085;SDS011;42964;42.910;23.792;2023-08-12T11:04:53;3.55;;;2.55;;
57085;SDS011;42964;42.910;23.792;2023-08-12T11:09:58;3.55;;;2.72;;
57085;SDS011;42964;42.910;23.792;2023-08-12T11:15:03;3.95;;;2.65;;
57085;SDS011;42964;42.910;23.792;2023-08-12T11:20:06;3.67;;;2.80;;
57085;SDS011;42964;42.910;23.792;2023-08-12T11:25:10;2.90;;;2.45;;
57085;SDS011;42964;42.910;23.792;2023-08-12T11:30:12;4.78;;;2.70;;
57085;SDS011;42964;42.910;23.792;2023-08-12T11:35:14;4.32;;;2.67;;
57085;SDS011;42964;42.910;23.792;2023-08-12T11:40:15;3.97;;;2.70;;
57085;SDS011;42964;42.910;23.792;2023-08-12T11:45:17;3.00;;;2.65;;
57085;SDS011;42964;42.910;23.792;2023-08-12T11:50:17;3.75;;;2.50;;
57085;SDS011;42964;42.910;23.792;2023-08-12T11:55:17;3.53;;;2.50;;
57085;SDS011;42964;42.910;23.792;2023-08-12T12:00:17;3.22;;;2.50;;
57085;SDS011;42964;42.910;23.792;2023-08-12T12:05:17;2.88;;;2.35;;
57085;SDS011;42964;42.910;23.792;2023-08-12T12:10:28;4.20;;;2.30;;
57085;SDS011;42964;42.910;23.792;2023-08-12T12:15:28;5.07;;;2.80;;
57085;SDS011;42964;42.910;23.792;2023-08-12T12:20:27;3.95;;;2.50;;
57085;SDS011;42964;42.910;23.792;2023-08-12T12:25:27;3.10;;;2.35;;
57085;SDS011;42964;42.910;23.792;2023-08-12T12:30:26;3.28;;;2.30;;
57085;SDS011;42964;42.910;23.792;2023-08-12T12:35:25;3.42;;;2.42;;
57085;SDS011;42964;42.910;23.792;2023-08-12T12:40:25;3.78;;;2.45;;
57085;SDS011;42964;42.910;23.792;2023-08-12T12:45:24;4.32;;;2.70;;
57085;SDS011;42964;42.910;23.792;2023-08-12T12:50:23;5.28;;;2.75;;
57085;SDS011;42964;42.910;23.792;2023-08-12T12:55:22;6.05;;;2.83;;
57085;SDS011;42964;42.910;23.792;2023-08-12T13:00:21;4.40;;;2.30;;
57085;SDS011;42964;42.910;23.792;2023-08-12T13:05:20;3.05;;;2.58;;
57085;SDS011;42964;42.910;23.792;2023-08-12T13:10:19;3.58;;;2.40;;
57085;SDS011;42964;42.910;23.792;2023-08-12T13:15:18;3.75;;;2.30;;
57085;SDS011;42964;42.910;23.792;2023-08-12T13:20:17;3.42;;;2.47;;
57085;SDS011;42964;42.910;23.792;2023-08-12T13:25:16;2.67;;;2.20;;
57085;SDS011;42964;42.910;23.792;2023-08-12T13:30:15;3.00;;;2.60;;
57085;SDS011;42964;42.910;23.792;2023-08-12T13:35:14;3.10;;;2.40;;
57085;SDS011;42964;42.910;23.792;2023-08-12T13:40:13;3.92;;;2.15;;
57085;SDS011;42964;42.910;23.792;2023-08-12T13:45:13;2.60;;;2.40;;
57085;SDS011;42964;42.910;23.792;2023-08-12T13:50:12;3.97;;;2.63;;
57085;SDS011;42964;42.910;23.792;2023-08-12T13:55:11;3.67;;;2.50;;
57085;SDS011;42964;42.910;23.792;2023-08-12T14:00:10;4.43;;;2.22;;
57085;SDS011;42964;42.910;23.792;2023-08-12T14:05:11;2.63;;;2.35;;
57085;SDS011;42964;42.910;23.792;2023-08-12T14:10:10;3.10;;;2.38;;
57085;SDS011;42964;42.910;23.792;2023-08-12T14:15:09;3.70;;;2.40;;
57085;SDS011;42964;42.910;23.792;2023-08-12T14:20:09;3.47;;;2.40;;
57085;SDS011;42964;42.910;23.792;2023-08-12T14:25:08;2.63;;;2.10;;
57085;SDS011;42964;42.910;23.792;2023-08-12T14:30:07;2.33;;;2.13;;
57085;SDS011;42964;42.910;23.792;2023-08-12T14:35:07;2.58;;;2.38;;
57085;SDS011;42964;42.910;23.792;2023-08-12T14:40:06;4.40;;;2.50;;
57085;SDS011;42964;42.910;23.792;2023-08-12T14:45:08;2.70;;;2.28;;
57085;SDS011;42964;42.910;23.792;2023-08-12T14:50:07;3.42;;;2.47;;
57085;SDS011;42964;42.910;23.792;2023-08-12T14:55:07;3.13;;;2.53;;
57085;SDS011;42964;42.910;23.792;2023-08-12T15:00:06;3.83;;;2.47;;
57085;SDS011;42964;42.910;23.792;2023-08-12T15:05:09;3.40;;;2.67;;
57085;SDS011;42964;42.910;23.792;2023-08-12T15:10:08;3.90;;;3.30;;
57085;SDS011;42964;42.910;23.792;2023-08-12T15:15:07;5.97;;;2.95;;
57085;SDS011;42964;42.910;23.792;2023-08-12T15:20:07;5.07;;;2.83;;
57085;SDS011;42964;42.910;23.792;2023-08-12T15:25:08;3.55;;;2.67;;
57085;SDS011;42964;42.910;23.792;2023-08-12T15:30:07;6.28;;;2.90;;
57085;SDS011;42964;42.910;23.792;2023-08-12T15:35:07;4.72;;;3.00;;
57085;SDS011;42964;42.910;23.792;2023-08-12T15:40:08;4.03;;;2.88;;
57085;SDS011;42964;42.910;23.792;2023-08-12T15:45:07;3.92;;;3.00;;
57085;SDS011;42964;42.910;23.792;2023-08-12T15:50:07;5.78;;;3.30;;
57085;SDS011;42964;42.910;23.792;2023-08-12T15:55:06;3.63;;;3.05;;
57085;SDS011;42964;42.910;23.792;2023-08-12T16:00:06;3.75;;;3.20;;
57085;SDS011;42964;42.910;23.792;2023-08-12T16:05:06;5.25;;;3.33;;
57085;SDS011;42964;42.910;23.792;2023-08-12T16:10:06;7.35;;;3.53;;
57085;SDS011;42964;42.910;23.792;2023-08-12T16:15:05;5.95;;;4.70;;
57085;SDS011;42964;42.910;23.792;2023-08-12T16:20:05;6.63;;;4.95;;
57085;SDS011;42964;42.910;23.792;2023-08-12T16:25:06;11.18;;;8.18;;
57085;SDS011;42964;42.910;23.792;2023-08-12T16:30:05;14.30;;;10.70;;
57085;SDS011;42964;42.910;23.792;2023-08-12T16:35:06;11.02;;;7.63;;
57085;SDS011;42964;42.910;23.792;2023-08-12T16:40:06;8.73;;;5.40;;
57085;SDS011;42964;42.910;23.792;2023-08-12T16:45:06;10.07;;;6.05;;
57085;SDS011;42964;42.910;23.792;2023-08-12T16:50:06;7.93;;;4.82;;
57085;SDS011;42964;42.910;23.792;2023-08-12T16:55:05;7.43;;;4.70;;
57085;SDS011;42964;42.910;23.792;2023-08-12T17:00:05;6.28;;;4.20;;
57085;SDS011;42964;42.910;23.792;2023-08-12T17:05:04;8.35;;;4.50;;
57085;SDS011;42964;42.910;23.792;2023-08-12T17:10:05;6.28;;;3.75;;
57085;SDS011;42964;42.910;23.792;2023-08-12T17:15:04;6.95;;;4.43;;
57085;SDS011;42964;42.910;23.792;2023-08-12T17:20:04;7.22;;;3.90;;
57085;SDS011;42964;42.910;23.792;2023-08-12T17:25:04;8.80;;;3.90;;
57085;SDS011;42964;42.910;23.792;2023-08-12T17:30:04;5.65;;;4.18;;
57085;SDS011;42964;42.910;23.792;2023-08-12T17:35:03;6.75;;;4.15;;
57085;SDS011;42964;42.910;23.792;2023-08-12T17:40:03;7.68;;;4.13;;
57085;SDS011;42964;42.910;23.792;2023-08-12T17:45:03;7.60;;;4.28;;
57085;SDS011;42964;42.910;23.792;2023-08-12T17:50:02;8.32;;;4.45;;
57085;SDS011;42964;42.910;23.792;2023-08-12T17:55:02;9.50;;;5.47;;
57085;SDS011;42964;42.910;23.792;2023-08-12T18:00:01;9.55;;;5.38;;
57085;SDS011;42964;42.910;23.792;2023-08-12T18:05:01;8.85;;;5.30;;
57085;SDS011;42964;42.910;23.792;2023-08-12T18:10:00;11.70;;;5.68;;
57085;SDS011;42964;42.910;23.792;2023-08-12T18:14:59;8.20;;;5.50;;
57085;SDS011;42964;42.910;23.792;2023-08-12T18:19:58;8.20;;;4.90;;
57085;SDS011;42964;42.910;23.792;2023-08-12T18:24:57;7.78;;;4.53;;
57085;SDS011;42964;42.910;23.792;2023-08-12T18:29:56;7.15;;;4.70;;
57085;SDS011;42964;42.910;23.792;2023-08-12T18:34:55;8.77;;;5.10;;
57085;SDS011;42964;42.910;23.792;2023-08-12T18:39:54;9.82;;;4.90;;
57085;SDS011;42964;42.910;23.792;2023-08-12T18:44:53;7.05;;;5.00;;
57085;SDS011;42964;42.910;23.792;2023-08-12T18:49:52;6.97;;;4.97;;
57085;SDS011;42964;42.910;23.792;2023-08-12T18:54:51;7.80;;;4.53;;
57085;SDS011;42964;42.910;23.792;2023-08-12T18:59:50;7.22;;;4.93;;
57085;SDS011;42964;42.910;23.792;2023-08-12T19:04:49;8.00;;;5.07;;
57085;SDS011;42964;42.910;23.792;2023-08-12T19:09:48;6.32;;;5.25;;
57085;SDS011;42964;42.910;23.792;2023-08-12T19:14:47;5.97;;;5.07;;
57085;SDS011;42964;42.910;23.792;2023-08-12T19:19:46;9.00;;;5.35;;
57085;SDS011;42964;42.910;23.792;2023-08-12T19:24:45;7.05;;;5.50;;
57085;SDS011;42964;42.910;23.792;2023-08-12T19:29:44;6.53;;;4.95;;
57085;SDS011;42964;42.910;23.792;2023-08-12T19:34:43;8.90;;;5.38;;
57085;SDS011;42964;42.910;23.792;2023-08-12T19:39:42;7.30;;;4.93;;
57085;SDS011;42964;42.910;23.792;2023-08-12T19:44:41;8.60;;;4.93;;
57085;SDS011;42964;42.910;23.792;2023-08-12T19:49:40;7.85;;;4.80;;
57085;SDS011;42964;42.910;23.792;2023-08-12T19:54:39;11.52;;;5.90;;
57085;SDS011;42964;42.910;23.792;2023-08-12T19:59:38;9.80;;;6.53;;
57085;SDS011;42964;42.910;23.792;2023-08-12T20:04:37;9.43;;;5.65;;
57085;SDS011;42964;42.910;23.792;2023-08-12T20:09:36;8.80;;;5.22;;
57085;SDS011;42964;42.910;23.792;2023-08-12T20:14:35;10.35;;;5.80;;
57085;SDS011;42964;42.910;23.792;2023-08-12T20:19:34;6.93;;;5.05;;
57085;SDS011;42964;42.910;23.792;2023-08-12T20:24:33;7.90;;;5.53;;
57085;SDS011;42964;42.910;23.792;2023-08-12T20:29:32;8.25;;;5.47;;
57085;SDS011;42964;42.910;23.792;2023-08-12T20:34:31;11.23;;;6.88;;
57085;SDS011;42964;42.910;23.792;2023-08-12T20:39:30;9.98;;;7.18;;
57085;SDS011;42964;42.910;23.792;2023-08-12T20:44:30;12.05;;;8.07;;
57085;SDS011;42964;42.910;23.792;2023-08-12T20:49:29;11.13;;;7.20;;
57085;SDS011;42964;42.910;23.792;2023-08-12T20:54:27;10.50;;;7.90;;
57085;SDS011;42964;42.910;23.792;2023-08-12T20:59:27;12.35;;;7.55;;
57085;SDS011;42964;42.910;23.792;2023-08-12T21:04:27;11.48;;;7.40;;
57085;SDS011;42964;42.910;23.792;2023-08-12T21:09:26;9.95;;;7.30;;
57085;SDS011;42964;42.910;23.792;2023-08-12T21:14:25;10.18;;;7.47;;
57085;SDS011;42964;42.910;23.792;2023-08-12T21:19:24;14.18;;;9.20;;
57085;SDS011;42964;42.910;23.792;2023-08-12T21:24:23;14.32;;;10.13;;
57085;SDS011;42964;42.910;23.792;2023-08-12T21:29:23;13.82;;;9.32;;
57085;SDS011;42964;42.910;23.792;2023-08-12T21:34:22;10.38;;;6.75;;
57085;SDS011;42964;42.910;23.792;2023-08-12T21:39:21;8.48;;;6.72;;
57085;SDS011;42964;42.910;23.792;2023-08-12T21:44:20;13.13;;;6.95;;
57085;SDS011;42964;42.910;23.792;2023-08-12T21:49:19;10.52;;;7.68;;
57085;SDS011;42964;42.910;23.792;2023-08-12T21:54:17;8.45;;;7.00;;
57085;SDS011;42964;42.910;23.792;2023-08-12T21:59:18;9.07;;;6.93;;
57085;SDS011;42964;42.910;23.792;2023-08-12T22:04:17;12.50;;;8.10;;
57085;SDS011;42964;42.910;23.792;2023-08-12T22:09:16;12.23;;;7.90;;
57085;SDS011;42964;42.910;23.792;2023-08-12T22:14:15;11.98;;;8.60;;
57085;SDS011;42964;42.910;23.792;2023-08-12T22:19:14;11.60;;;8.55;;
57085;SDS011;42964;42.910;23.792;2023-08-12T22:24:13;12.55;;;7.65;;
57085;SDS011;42964;42.910;23.792;2023-08-12T22:29:12;11.55;;;8.00;;
57085;SDS011;42964;42.910;23.792;2023-08-12T22:34:12;12.52;;;8.50;;
57085;SDS011;42964;42.910;23.792;2023-08-12T22:39:12;10.05;;;8.25;;
57085;SDS011;42964;42.910;23.792;2023-08-12T22:44:11;13.32;;;8.77;;
57085;SDS011;42964;42.910;23.792;2023-08-12T22:54:08;11.23;;;8.63;;
57085;SDS011;42964;42.910;23.792;2023-08-12T22:59:08;10.15;;;7.97;;
57085;SDS011;42964;42.910;23.792;2023-08-12T23:04:07;9.98;;;7.93;;
57085;SDS011;42964;42.910;23.792;2023-08-12T23:09:06;12.02;;;7.65;;
57085;SDS011;42964;42.910;23.792;2023-08-12T23:19:04;11.50;;;8.07;;
57085;SDS011;42964;42.910;23.792;2023-08-12T23:29:02;9.93;;;7.40;;
57085;SDS011;42964;42.910;23.792;2023-08-12T23:34:01;12.07;;;8.13;;
57085;SDS011;42964;42.910;23.792;2023-08-12T23:39:00;16.60;;;8.80;;
57085;SDS011;42964;42.910;23.792;2023-08-12T23:48:57;9.37;;;8.37;;
57085;SDS011;42964;42.910;23.792;2023-08-12T23:58:55;11.90;;;7.83;;
